Time;durP1;ratioP1;P1;durP2;ratioP2;P2;SDS_P1;SDS_P2;PMS_P1;PMS_P2;Temp;Humidity;BMP_temperature;BMP_pressure;BME280_temperature;BME280_humidity;BME280_pressure;Samples;Min_cycle;Max_cycle;Signal;HPM_P1;HPM_P2
2023/06/09 00:00:11;;;;;;;8.77;3.70;;;;;;;15.08;71.84;101652.06;5092298;28;20116;-78
2023/06/09 00:02:39;;;;;;;8.80;3.13;;;;;;;15.07;72.16;101647.13;5075026;28;20531;-78
2023/06/09 00:05:06;;;;;;;12.07;3.63;;;;;;;15.05;72.32;101641.47;5093565;28;20055;-78
2023/06/09 00:07:35;;;;;;;11.30;3.58;;;;;;;15.02;72.18;101643.84;5091926;28;20048;-78
2023/06/09 00:10:03;;;;;;;10.40;3.42;;;;;;;14.97;72.48;101644.44;5093676;28;20048;-78
2023/06/09 00:12:30;;;;;;;12.50;3.80;;;;;;;14.94;72.60;101634.63;5092986;28;20053;-78
2023/06/09 00:14:57;;;;;;;10.23;4.03;;;;;;;14.93;72.61;101641.16;5093622;28;20501;-79
2023/06/09 00:17:25;;;;;;;10.38;3.58;;;;;;;14.93;72.61;101645.78;5092330;28;20554;-79
2023/06/09 00:20:01;;;;;;;10.27;3.92;;;;;;;14.89;72.53;101651.28;5093607;28;20040;-79
2023/06/09 00:22:27;;;;;;;14.85;4.15;;;;;;;14.87;72.92;101647.56;5093147;28;20128;-78
2023/06/09 00:24:54;;;;;;;10.98;4.15;;;;;;;14.84;73.07;101648.47;5095061;28;20043;-79
2023/06/09 00:27:21;;;;;;;12.93;4.20;;;;;;;14.79;73.27;101641.78;5095104;28;20493;-78
2023/06/09 00:29:48;;;;;;;11.75;3.72;;;;;;;14.74;73.09;101637.00;5092029;28;20136;-78
2023/06/09 00:32:14;;;;;;;7.90;3.90;;;;;;;14.68;73.77;101630.75;5091271;28;20056;-78
2023/06/09 00:34:43;;;;;;;7.45;3.40;;;;;;;14.65;73.60;101634.31;5091830;28;20135;-79
2023/06/09 00:37:09;;;;;;;9.27;3.28;;;;;;;14.60;73.83;101630.31;5092596;28;20405;-79
2023/06/09 00:39:36;;;;;;;9.15;3.42;;;;;;;14.58;73.91;101629.25;5091984;28;20052;-79
2023/06/09 01:02:19;;;;;;;8.77;3.97;;;;;;;14.26;74.83;101628.59;5090789;28;20040;-79
2023/06/09 01:04:49;;;;;;;9.98;3.80;;;;;;;14.21;75.36;101621.13;5091776;28;20143;-79
2023/06/09 01:07:38;;;;;;;10.55;3.85;;;;;;;14.18;75.64;101616.66;5090899;28;20052;-79
2023/06/09 01:10:14;;;;;;;12.07;4.18;;;;;;;14.12;76.20;101620.34;5091730;28;20044;-78
2023/06/09 01:13:30;;;;;;;11.45;3.85;;;;;;;14.08;75.93;101617.06;5091999;28;20059;-79
2023/06/09 01:16:03;;;;;;;10.38;3.47;;;;;;;14.05;76.33;101621.38;5079115;28;20127;-79
2023/06/09 01:18:30;;;;;;;7.03;3.55;;;;;;;14.02;76.61;101624.94;5092686;28;20053;-79
2023/06/09 01:21:12;;;;;;;13.35;4.05;;;;;;;14.00;76.72;101619.28;5092398;28;20052;-79
2023/06/09 01:23:51;;;;;;;8.57;3.13;;;;;;;13.99;76.68;101623.16;5091515;28;20112;-79
2023/06/09 01:26:18;;;;;;;9.48;3.83;;;;;;;13.95;76.87;101625.22;5092135;28;20040;-79
2023/06/09 01:28:47;;;;;;;10.15;3.60;;;;;;;13.88;77.21;101620.88;5090260;28;20486;-79
2023/06/09 01:31:15;;;;;;;8.73;3.50;;;;;;;13.84;77.60;101628.31;5091248;28;20049;-79
2023/06/09 01:33:44;;;;;;;9.32;4.25;;;;;;;13.81;77.64;101631.13;5095690;28;20558;-79
2023/06/09 01:36:11;;;;;;;7.18;3.83;;;;;;;13.77;77.97;101622.47;5090758;28;20594;-79
2023/06/09 01:38:38;;;;;;;15.00;4.18;;;;;;;13.75;78.09;101622.16;5092869;28;20119;-79
2023/06/09 01:41:05;;;;;;;7.47;3.70;;;;;;;13.74;77.67;101620.66;5092264;28;20051;-79
2023/06/09 01:43:32;;;;;;;13.77;4.35;;;;;;;13.69;77.62;101611.28;5091679;28;20041;-79
2023/06/09 01:45:58;;;;;;;10.40;3.83;;;;;;;13.65;77.84;101613.34;5092517;28;20052;-79
2023/06/09 01:48:49;;;;;;;9.20;3.50;;;;;;;13.65;77.58;101614.09;5091704;28;20131;-79
2023/06/09 01:51:36;;;;;;;10.02;3.85;;;;;;;13.63;77.26;101611.09;5090535;28;20053;-79
2023/06/09 01:54:10;;;;;;;7.13;3.75;;;;;;;13.58;77.63;101608.28;5092756;28;20045;-79
2023/06/09 01:56:43;;;;;;;8.88;3.42;;;;;;;13.56;77.68;101605.28;5091320;28;20132;-79
2023/06/09 01:59:15;;;;;;;9.88;3.90;;;;;;;13.55;77.73;101603.81;5089976;28;20684;-79
2023/06/09 02:01:44;;;;;;;9.57;4.30;;;;;;;13.54;77.74;101610.34;5092545;28;20041;-79
2023/06/09 02:04:14;;;;;;;11.20;3.83;;;;;;;13.48;77.70;101607.47;5092695;28;20070;-80
2023/06/09 02:06:41;;;;;;;12.50;4.35;;;;;;;13.49;77.71;101595.59;5099775;28;20084;-79
2023/06/09 02:09:09;;;;;;;16.15;4.40;;;;;;;13.47;77.98;101597.97;5093612;28;20416;-79
2023/06/09 02:11:37;;;;;;;13.00;3.67;;;;;;;13.46;77.58;101595.72;5094237;28;20516;-79
2023/06/09 02:14:03;;;;;;;11.73;4.00;;;;;;;13.44;77.59;101593.50;5095061;28;20114;-79
2023/06/09 02:16:30;;;;;;;11.93;3.92;;;;;;;13.43;77.69;101586.66;5093841;28;20049;-79
2023/06/09 02:18:57;;;;;;;8.45;3.50;;;;;;;13.41;77.58;101588.28;5077298;28;20045;-79
2023/06/09 02:21:23;;;;;;;8.77;4.32;;;;;;;13.39;77.41;101583.34;5076753;28;20095;-79
2023/06/09 02:23:50;;;;;;;12.85;4.55;;;;;;;13.36;77.90;101597.59;5095720;28;20540;-79
2023/06/09 02:26:17;;;;;;;11.73;4.18;;;;;;;13.30;77.69;101594.00;5093291;28;20063;-80
2023/06/09 02:28:43;;;;;;;9.93;3.60;;;;;;;13.29;77.82;101597.84;5094731;28;20049;-80
2023/06/09 02:31:10;;;;;;;9.40;3.85;;;;;;;13.26;77.42;101596.81;5094854;28;20523;-79
2023/06/09 02:33:37;;;;;;;8.20;3.63;;;;;;;13.24;77.34;101596.50;5095238;28;20037;-79
2023/06/09 02:36:03;;;;;;;7.95;3.88;;;;;;;13.21;77.77;101592.00;5077221;28;20095;-79
2023/06/09 02:38:31;;;;;;;11.20;4.32;;;;;;;13.18;77.61;101608.94;5079315;28;20040;-79
2023/06/09 02:40:57;;;;;;;10.80;4.20;;;;;;;13.16;77.44;101602.53;5096259;28;20079;-79
2023/06/09 02:43:24;;;;;;;9.40;4.07;;;;;;;13.13;77.62;101590.78;5094524;28;20581;-80
2023/06/09 02:45:52;;;;;;;10.68;4.35;;;;;;;13.12;77.50;101599.22;5093629;28;20049;-79
2023/06/09 02:48:18;;;;;;;10.60;4.18;;;;;;;13.11;77.12;101605.75;5093235;28;20492;-80
2023/06/09 02:50:45;;;;;;;9.55;3.67;;;;;;;13.08;77.20;101596.69;5094110;28;20049;-79
2023/06/09 02:53:13;;;;;;;10.73;4.57;;;;;;;13.06;77.13;101591.00;5092981;28;20045;-80
2023/06/09 02:55:44;;;;;;;8.85;4.28;;;;;;;13.03;77.01;101592.63;5094810;28;20127;-80
2023/06/09 02:58:15;;;;;;;15.25;3.75;;;;;;;13.02;77.18;101590.41;5092922;28;20102;-79
2023/06/09 03:00:45;;;;;;;9.80;4.05;;;;;;;12.97;77.29;101602.38;5093582;28;20047;-80
2023/06/09 03:03:13;;;;;;;10.52;3.80;;;;;;;12.95;77.49;101604.00;5092863;28;20042;-80
2023/06/09 03:05:43;;;;;;;8.73;4.15;;;;;;;12.91;77.72;101598.03;5093263;28;20072;-77
2023/06/09 03:08:11;;;;;;;8.88;3.53;;;;;;;12.89;77.23;101598.47;5092824;28;20045;-78
2023/06/09 03:10:39;;;;;;;10.55;4.00;;;;;;;12.87;77.84;101610.75;5093103;28;20055;-78
2023/06/09 03:13:08;;;;;;;10.25;4.18;;;;;;;12.83;77.58;101602.88;5097642;28;20045;-79
2023/06/09 03:15:40;;;;;;;9.00;3.78;;;;;;;12.81;77.35;101593.78;5092396;28;20115;-79
2023/06/09 03:18:09;;;;;;;9.82;4.03;;;;;;;12.78;77.68;101584.75;5092558;28;20114;-79
2023/06/09 03:20:38;;;;;;;8.30;4.32;;;;;;;12.72;77.96;101589.13;5093160;28;20061;-78
2023/06/09 03:23:08;;;;;;;8.85;4.32;;;;;;;12.67;78.28;101581.66;5076272;28;20045;-79
2023/06/09 03:25:37;;;;;;;7.65;4.03;;;;;;;12.66;78.06;101590.88;5092449;28;20055;-79
2023/06/09 03:28:04;;;;;;;8.38;4.60;;;;;;;12.63;78.02;101591.72;5092723;28;20124;-79
2023/06/09 03:30:33;;;;;;;11.05;4.15;;;;;;;12.60;78.61;101597.94;5092342;28;20055;-79
2023/06/09 03:33:01;;;;;;;8.43;4.13;;;;;;;12.58;78.19;101595.69;5092557;28;20489;-78
2023/06/09 03:35:28;;;;;;;8.20;4.07;;;;;;;12.59;78.21;101596.44;5092098;28;20493;-80
2023/06/09 03:37:54;;;;;;;6.22;4.07;;;;;;;12.58;78.15;101593.03;5076140;28;20040;-79
2023/06/09 03:40:21;;;;;;;16.05;4.95;;;;;;;12.58;78.37;101602.97;5091708;28;20064;-79
2023/06/09 03:42:48;;;;;;;12.65;4.72;;;;;;;12.56;78.69;101594.63;5094395;28;20040;-79
2023/06/09 03:45:15;;;;;;;7.78;4.47;;;;;;;12.54;78.28;101613.75;5095338;28;20059;-79
2023/06/09 03:47:41;;;;;;;14.52;4.40;;;;;;;12.54;77.97;101605.75;5097031;28;20081;-79
2023/06/09 03:50:09;;;;;;;7.47;4.20;;;;;;;12.53;78.43;101601.59;5075315;28;20841;-79
2023/06/09 03:52:36;;;;;;;9.48;4.22;;;;;;;12.50;78.16;101602.44;5075784;28;20517;-79
2023/06/09 03:55:07;;;;;;;10.33;4.30;;;;;;;12.50;78.44;101591.00;5091978;28;20584;-79
2023/06/09 03:57:35;;;;;;;11.20;4.30;;;;;;;12.49;78.56;101586.84;5092761;28;20571;-79
2023/06/09 04:00:03;;;;;;;10.93;4.53;;;;;;;12.47;78.81;101589.94;5092537;28;20055;-79
2023/06/09 04:02:30;;;;;;;10.75;4.53;;;;;;;12.47;78.49;101583.88;5093577;28;20084;-79
2023/06/09 04:04:57;;;;;;;14.15;4.60;;;;;;;12.50;78.55;101591.00;5092169;28;20136;-79
2023/06/09 04:07:24;;;;;;;10.00;3.97;;;;;;;12.50;78.71;101593.69;5091598;28;20106;-79
2023/06/09 04:09:51;;;;;;;11.35;4.55;;;;;;;12.54;78.33;101589.72;5091945;28;20055;-79
2023/06/09 04:12:18;;;;;;;9.30;4.45;;;;;;;12.56;78.45;101594.63;5090790;28;20561;-79
2023/06/09 04:14:45;;;;;;;9.02;4.22;;;;;;;12.60;78.21;101595.25;5092154;28;20083;-79
2023/06/09 04:17:12;;;;;;;9.73;4.80;;;;;;;12.60;78.08;101596.00;5091565;28;20048;-79
2023/06/09 04:19:39;;;;;;;15.05;4.90;;;;;;;12.63;77.99;101589.06;5095296;28;20048;-79
2023/06/09 04:22:07;;;;;;;9.15;4.20;;;;;;;12.68;77.84;101599.94;5093571;28;20051;-79
2023/06/09 04:24:34;;;;;;;6.93;3.92;;;;;;;12.82;77.26;101593.34;5091824;28;20056;-79
2023/06/09 04:27:03;;;;;;;11.30;4.85;;;;;;;12.89;76.78;101600.38;5092027;28;20291;-79
2023/06/09 04:29:33;;;;;;;9.20;4.50;;;;;;;12.92;76.80;101594.91;5093156;28;20127;-79
2023/06/09 04:32:01;;;;;;;9.93;4.07;;;;;;;12.99;76.33;101596.59;5091934;28;20118;-79
2023/06/09 04:34:38;;;;;;;10.88;4.80;;;;;;;13.00;76.50;101596.16;5091364;28;20060;-79
2023/06/09 04:37:08;;;;;;;7.22;4.43;;;;;;;13.06;76.32;101598.28;5091368;28;20971;-79
2023/06/09 04:39:35;;;;;;;8.13;4.55;;;;;;;13.83;75.00;101593.94;5092146;28;20052;-80
2023/06/09 04:42:05;;;;;;;8.77;4.32;;;;;;;14.55;71.53;101595.31;5091762;28;20456;-79
2023/06/09 04:44:33;;;;;;;9.13;5.05;;;;;;;14.66;70.63;101599.03;5091719;28;20060;-80
2023/06/09 04:47:02;;;;;;;8.13;4.20;;;;;;;15.36;68.60;101601.78;5091858;28;20055;-80
2023/06/09 04:49:30;;;;;;;8.57;4.35;;;;;;;16.96;64.32;101596.81;5090793;28;20102;-80
2023/06/09 04:51:59;;;;;;;6.18;4.18;;;;;;;18.41;59.35;101606.28;5079994;28;20136;-79
2023/06/09 04:54:30;;;;;;;7.03;4.47;;;;;;;19.30;55.08;101599.81;5094601;28;20098;-81
2023/06/09 04:57:02;;;;;;;10.15;4.40;;;;;;;19.86;53.71;101611.00;5091924;28;20045;-80
2023/06/09 04:59:30;;;;;;;6.95;4.10;;;;;;;20.53;51.67;101605.91;5092732;28;20302;-80
2023/06/09 05:01:57;;;;;;;7.55;4.40;;;;;;;20.81;50.42;101607.91;5091581;28;20044;-80
2023/06/09 05:04:25;;;;;;;14.10;4.70;;;;;;;20.89;49.12;101611.63;5091044;28;20123;-80
2023/06/09 05:06:53;;;;;;;9.45;4.57;;;;;;;21.40;48.48;101623.97;5091020;28;20055;-80
2023/06/09 05:09:20;;;;;;;9.30;4.82;;;;;;;21.91;47.69;101622.66;5092666;28;20044;-80
2023/06/09 05:11:47;;;;;;;9.77;4.60;;;;;;;22.40;46.19;101614.81;5090872;28;20052;-78
2023/06/09 05:14:14;;;;;;;10.57;4.75;;;;;;;22.48;45.43;101623.16;5090843;28;20049;-78
2023/06/09 05:16:45;;;;;;;10.32;5.00;;;;;;;22.47;45.29;101619.72;5091227;28;20084;-77
2023/06/09 05:19:13;;;;;;;13.98;5.47;;;;;;;22.70;45.58;101614.91;5090781;28;20044;-78
2023/06/09 05:21:40;;;;;;;14.85;4.18;;;;;;;23.01;44.11;101616.44;5090794;28;20048;-76
2023/06/09 05:24:08;;;;;;;8.35;4.72;;;;;;;23.19;44.39;101623.94;5090318;28;20424;-76
2023/06/09 05:26:34;;;;;;;11.60;4.88;;;;;;;23.14;43.99;101616.59;5096077;28;20986;-76
2023/06/09 05:29:01;;;;;;;9.32;4.78;;;;;;;23.39;43.44;101616.63;5093552;28;20036;-77
2023/06/09 05:31:29;;;;;;;9.93;4.95;;;;;;;23.43;43.32;101612.38;5090464;28;20053;-77
2023/06/09 05:33:55;;;;;;;8.63;4.45;;;;;;;23.51;43.62;101624.16;5092368;28;20468;-77
2023/06/09 05:36:22;;;;;;;9.20;4.93;;;;;;;23.55;43.60;101613.03;5090047;28;20049;-77
2023/06/09 05:38:51;;;;;;;9.57;4.88;;;;;;;23.55;43.79;101607.63;5089883;28;20567;-77
2023/06/09 05:41:18;;;;;;;13.50;5.15;;;;;;;23.19;44.14;101617.81;5090507;28;20080;-77
2023/06/09 05:43:44;;;;;;;9.70;5.05;;;;;;;23.37;44.21;101617.13;5092164;28;20049;-77
2023/06/09 05:46:11;;;;;;;10.43;4.90;;;;;;;23.43;43.97;101617.81;5090430;28;20045;-76
2023/06/09 05:48:38;;;;;;;10.50;5.43;;;;;;;23.14;44.65;101619.31;5091516;28;20049;-77
2023/06/09 05:51:04;;;;;;;14.98;5.32;;;;;;;22.77;45.49;101619.06;5090725;28;20059;-78
2023/06/09 05:53:33;;;;;;;10.63;5.60;;;;;;;22.67;46.12;101624.06;5091164;28;20048;-78
2023/06/09 05:56:00;;;;;;;8.82;5.25;;;;;;;22.70;47.17;101620.34;5091245;28;20055;-77
2023/06/09 05:58:27;;;;;;;7.53;5.25;;;;;;;22.43;47.06;101621.97;5093019;28;20048;-76
2023/06/09 06:00:57;;;;;;;10.63;5.35;;;;;;;22.14;48.07;101619.88;5093370;28;20041;-78
2023/06/09 06:03:24;;;;;;;14.50;5.53;;;;;;;21.99;48.74;101616.72;5091923;28;20049;-78
2023/06/09 06:05:51;;;;;;;15.18;5.63;;;;;;;21.70;49.28;101609.88;5091989;28;20494;-78
2023/06/09 06:08:18;;;;;;;15.95;6.15;;;;;;;21.59;50.03;101605.25;5090848;28;20045;-80
2023/06/09 06:10:45;;;;;;;10.68;5.93;;;;;;;21.58;50.05;101607.22;5092513;28;20072;-78
2023/06/09 06:13:12;;;;;;;13.85;6.03;;;;;;;21.26;51.00;101603.28;5091930;28;20123;-76
2023/06/09 06:15:39;;;;;;;8.95;5.82;;;;;;;21.16;51.28;101613.63;5092500;28;20132;-76
2023/06/09 06:18:05;;;;;;;13.43;6.03;;;;;;;21.12;51.61;101606.97;5092525;28;20055;-74
2023/06/09 06:20:32;;;;;;;9.15;5.40;;;;;;;21.23;51.96;101607.72;5091873;28;20041;-77
2023/06/09 06:22:59;;;;;;;15.55;6.38;;;;;;;21.39;51.81;101613.63;5092226;28;20052;-76
2023/06/09 06:25:28;;;;;;;16.08;5.88;;;;;;;21.37;51.57;101606.00;5092186;28;20080;-75
2023/06/09 06:27:55;;;;;;;8.80;5.57;;;;;;;21.27;52.45;101610.19;5092137;28;20044;-75
2023/06/09 06:30:21;;;;;;;12.88;6.43;;;;;;;21.23;52.25;101615.84;5091969;28;20138;-75
2023/06/09 06:32:50;;;;;;;9.93;6.20;;;;;;;21.27;52.50;101613.63;5092698;28;20040;-75
2023/06/09 06:35:28;;;;;;;11.50;6.07;;;;;;;21.29;52.66;101611.16;5092453;28;20127;-75
2023/06/09 06:37:56;;;;;;;7.93;6.00;;;;;;;21.36;52.37;101617.31;5090677;28;20080;-74
2023/06/09 06:40:23;;;;;;;14.15;6.53;;;;;;;21.25;52.50;101613.38;5091832;28;20501;-75
2023/06/09 06:42:51;;;;;;;10.18;6.10;;;;;;;21.29;52.80;101613.88;5090596;28;20239;-74
2023/06/09 06:45:29;;;;;;;12.32;6.93;;;;;;;21.28;53.16;101609.69;5090400;28;20044;-74
2023/06/09 06:47:55;;;;;;;10.82;6.50;;;;;;;21.39;52.63;101614.38;5091781;28;20041;-74
2023/06/09 06:50:22;;;;;;;7.78;6.35;;;;;;;21.47;52.67;101615.34;5093281;28;20053;-75
2023/06/09 06:52:52;;;;;;;17.20;7.18;;;;;;;21.59;52.47;101605.25;5095530;28;20124;-75
2023/06/09 06:55:18;;;;;;;14.73;6.90;;;;;;;21.63;51.82;101601.03;5093704;28;20409;-75
2023/06/09 06:57:45;;;;;;;11.63;6.43;;;;;;;21.68;52.55;101606.94;5095587;28;20047;-74
2023/06/09 07:00:14;;;;;;;13.02;6.68;;;;;;;21.85;52.78;101604.91;5094965;28;20044;-78
2023/06/09 07:02:45;;;;;;;9.38;6.30;;;;;;;22.01;52.01;101612.28;5093492;28;20127;-78
2023/06/09 07:05:13;;;;;;;9.32;6.57;;;;;;;22.06;51.04;101614.22;5096892;28;20122;-79
2023/06/09 07:07:40;;;;;;;14.57;6.70;;;;;;;22.13;51.96;101608.28;5098461;28;20045;-78
2023/06/09 07:10:09;;;;;;;10.80;6.57;;;;;;;22.27;51.75;101615.38;5093792;28;20501;-76
2023/06/09 07:12:36;;;;;;;11.93;6.70;;;;;;;22.28;51.12;101610.69;5094439;28;20128;-76
2023/06/09 07:15:03;;;;;;;12.85;6.78;;;;;;;22.40;52.39;101611.38;5095117;28;20048;-77
2023/06/09 07:17:30;;;;;;;14.20;6.85;;;;;;;22.43;51.05;101610.38;5094709;28;20092;-77
2023/06/09 07:19:57;;;;;;;10.35;6.50;;;;;;;22.57;50.59;101617.44;5095073;28;20098;-77
2023/06/09 07:22:24;;;;;;;10.85;6.45;;;;;;;22.76;49.91;101609.44;5094823;28;20162;-77
2023/06/09 07:24:51;;;;;;;16.08;6.80;;;;;;;22.77;50.12;101611.66;5093597;28;20044;-77
2023/06/09 07:27:17;;;;;;;8.27;6.43;;;;;;;22.83;49.69;101608.91;5093369;28;20492;-76
2023/06/09 07:29:44;;;;;;;15.77;6.97;;;;;;;22.99;49.66;101604.63;5094530;28;20051;-75
2023/06/09 07:32:10;;;;;;;11.63;6.85;;;;;;;23.27;50.36;101611.28;5094181;28;20543;-78
2023/06/09 07:34:37;;;;;;;11.32;6.60;;;;;;;23.50;49.67;101617.25;5095257;28;20044;-78
2023/06/09 07:37:05;;;;;;;12.10;6.65;;;;;;;23.54;48.67;101617.00;5094783;28;20110;-77
2023/06/09 07:39:34;;;;;;;10.27;6.28;;;;;;;23.62;48.46;101620.63;5096537;28;20461;-76
2023/06/09 07:42:01;;;;;;;11.15;6.18;;;;;;;23.66;48.62;101612.19;5095236;28;20044;-78
2023/06/09 07:44:28;;;;;;;10.88;6.85;;;;;;;23.85;48.15;101621.13;5092999;28;20582;-79
2023/06/09 07:46:55;;;;;;;11.50;6.25;;;;;;;23.92;46.88;101615.84;5075180;28;20425;-78
2023/06/09 07:49:21;;;;;;;10.15;6.65;;;;;;;24.01;47.13;101608.56;5093877;28;20156;-78
2023/06/09 07:51:49;;;;;;;9.93;6.38;;;;;;;24.21;46.94;101621.69;5094306;28;20044;-79
2023/06/09 07:54:16;;;;;;;11.75;6.63;;;;;;;24.20;46.31;101610.06;5110938;28;20055;-79
2023/06/09 07:56:48;;;;;;;9.45;6.07;;;;;;;24.50;47.03;101615.38;5113906;28;20044;-78
2023/06/09 07:59:19;;;;;;;14.52;6.55;;;;;;;24.71;46.49;101609.41;5113261;28;20572;-79
2023/06/09 08:01:46;;;;;;;12.15;7.35;;;;;;;24.91;45.74;101622.44;5114388;27;20044;-79
2023/06/09 08:04:13;;;;;;;11.93;6.93;;;;;;;24.80;45.40;101612.47;5113668;28;20044;-82
2023/06/09 08:06:41;;;;;;;8.05;6.22;;;;;;;24.96;46.10;101616.22;5113711;28;20505;-79
2023/06/09 08:09:09;;;;;;;13.65;7.10;;;;;;;25.03;45.04;101609.44;5113122;28;20117;-79
2023/06/09 08:11:38;;;;;;;11.70;6.88;;;;;;;25.12;44.89;101606.31;5113437;28;20052;-79
2023/06/09 08:14:06;;;;;;;12.05;6.72;;;;;;;25.21;45.08;101609.34;5118090;27;20036;-79
2023/06/09 08:16:33;;;;;;;14.32;6.60;;;;;;;25.40;44.79;101606.56;5114431;28;20036;-85
2023/06/09 08:19:00;;;;;;;10.68;6.60;;;;;;;25.63;44.69;101608.84;5113370;28;20074;-78
2023/06/09 08:21:26;;;;;;;10.20;7.20;;;;;;;25.59;43.50;101604.44;5114699;27;20071;-78
2023/06/09 08:23:53;;;;;;;10.23;6.40;;;;;;;25.70;44.04;101600.09;5114557;27;20048;-77
2023/06/09 08:26:20;;;;;;;10.68;7.65;;;;;;;25.84;43.53;101605.00;5114193;27;20051;-82
2023/06/09 08:28:47;;;;;;;11.93;6.78;;;;;;;25.94;43.03;101599.13;5114717;27;20044;-80
2023/06/09 08:31:14;;;;;;;15.10;7.03;;;;;;;26.06;43.09;101595.63;5113797;27;20338;-80
2023/06/09 08:33:41;;;;;;;10.73;6.95;;;;;;;26.11;43.45;101588.59;5112946;28;20054;-81
2023/06/09 08:36:09;;;;;;;8.63;6.70;;;;;;;26.38;44.45;101586.56;5112767;28;20079;-77
2023/06/09 08:38:35;;;;;;;8.02;6.43;;;;;;;26.68;42.85;101588.84;5114259;27;20110;-76
2023/06/09 08:41:09;;;;;;;11.95;6.63;;;;;;;26.78;42.69;101587.13;5114444;27;20531;-77
2023/06/09 08:43:36;;;;;;;10.88;7.05;;;;;;;26.91;41.58;101592.50;5113945;28;20083;-76
2023/06/09 08:46:06;;;;;;;9.75;7.15;;;;;;;26.96;42.05;101588.19;5114092;27;20126;-73
2023/06/09 08:48:36;;;;;;;10.25;6.32;;;;;;;27.13;41.47;101585.78;5114144;27;20071;-74
2023/06/09 08:51:03;;;;;;;8.23;6.85;;;;;;;27.09;41.76;101580.66;5113973;28;20048;-73
2023/06/09 08:53:31;;;;;;;10.05;6.95;;;;;;;27.26;41.14;101582.94;5112595;28;20087;-76
2023/06/09 08:55:59;;;;;;;8.20;6.95;;;;;;;27.40;41.30;101570.66;5114226;27;20511;-76
2023/06/09 08:58:26;;;;;;;8.27;6.75;;;;;;;27.61;41.57;101575.31;5113220;28;20047;-76
2023/06/09 09:00:54;;;;;;;15.73;6.82;;;;;;;27.73;40.34;101579.22;5112389;28;20058;-74
2023/06/09 09:03:22;;;;;;;10.30;6.55;;;;;;;27.88;40.34;101582.03;5112317;28;20051;-74
2023/06/09 09:05:49;;;;;;;11.07;6.90;;;;;;;27.93;39.74;101583.13;5113843;28;20044;-74
2023/06/09 09:08:16;;;;;;;11.07;6.50;;;;;;;28.12;41.56;101572.59;5112432;28;20502;-75
2023/06/09 09:10:45;;;;;;;8.90;6.65;;;;;;;28.40;39.26;101575.25;5113725;27;20131;-77
2023/06/09 09:13:12;;;;;;;8.13;6.22;;;;;;;28.57;39.76;101572.00;5111717;27;20054;-75
2023/06/09 09:15:49;;;;;;;10.07;6.60;;;;;;;28.61;39.60;101572.34;5113584;27;20546;-75
2023/06/09 09:18:17;;;;;;;13.85;6.90;;;;;;;28.62;38.68;101571.09;5113994;28;20048;-75
2023/06/09 09:20:44;;;;;;;8.00;7.03;;;;;;;28.84;38.54;101573.09;5112358;28;20040;-76
2023/06/09 09:23:11;;;;;;;7.43;6.10;;;;;;;28.84;38.53;101570.38;5113918;27;20050;-76
2023/06/09 09:25:38;;;;;;;9.63;6.57;;;;;;;29.07;38.37;101569.63;5113605;27;20044;-76
2023/06/09 09:28:05;;;;;;;12.35;6.40;;;;;;;29.17;37.56;101574.00;5112822;28;20047;-77
2023/06/09 09:30:47;;;;;;;7.72;6.78;;;;;;;29.27;37.47;101568.66;5113450;27;20052;-76
2023/06/09 09:33:18;;;;;;;8.45;6.28;;;;;;;29.31;38.20;101568.28;5094691;28;20048;-75
2023/06/09 09:35:47;;;;;;;13.23;6.50;;;;;;;29.49;37.34;101570.66;5113382;28;20056;-75
2023/06/09 09:38:19;;;;;;;13.02;6.35;;;;;;;29.65;37.30;101567.84;5112859;27;20124;-75
2023/06/09 09:40:51;;;;;;;8.85;6.55;;;;;;;29.52;36.92;101566.81;5113556;27;20127;-77
2023/06/09 09:43:19;;;;;;;6.97;6.30;;;;;;;29.46;36.86;101566.28;5112651;28;20044;-75
2023/06/09 09:45:47;;;;;;;8.00;6.80;;;;;;;29.63;36.68;101556.69;5113409;27;20048;-75
2023/06/09 09:48:17;;;;;;;7.80;6.30;;;;;;;29.87;36.29;101558.81;5112845;27;20044;-76
2023/06/09 09:50:46;;;;;;;9.13;6.25;;;;;;;30.01;36.25;101562.75;5113468;27;20048;-77
2023/06/09 09:53:12;;;;;;;9.88;6.15;;;;;;;30.01;36.05;101562.75;5111597;28;20045;-77
2023/06/09 09:55:44;;;;;;;8.73;6.28;;;;;;;30.36;35.72;101555.44;5113386;27;20044;-76
2023/06/09 09:58:12;;;;;;;7.82;6.38;;;;;;;30.42;36.10;101564.16;5113037;27;20499;-75
2023/06/09 10:00:42;;;;;;;9.23;6.53;;;;;;;30.49;35.32;101560.63;5112927;28;20051;-75
2023/06/09 10:03:13;;;;;;;8.57;6.18;;;;;;;30.59;36.31;101558.03;5112604;27;20036;-75
2023/06/09 10:05:45;;;;;;;10.95;6.63;;;;;;;30.61;35.12;101566.44;5111228;28;20121;-75
2023/06/09 10:08:26;;;;;;;9.32;6.00;;;;;;;30.76;35.38;101549.09;5091575;27;20518;-74
2023/06/09 10:10:56;;;;;;;11.13;6.93;;;;;;;30.66;35.04;101554.50;5091912;28;20111;-76
2023/06/09 10:13:26;;;;;;;7.22;6.18;;;;;;;30.76;34.86;101547.06;5091863;28;20513;-75
2023/06/09 10:15:57;;;;;;;7.05;6.38;;;;;;;30.97;35.08;101548.72;5091951;28;20044;-76
2023/06/09 10:18:24;;;;;;;10.68;6.45;;;;;;;31.05;35.06;101547.34;5091811;28;20044;-75
2023/06/09 10:20:52;;;;;;;14.35;6.63;;;;;;;31.04;33.86;101548.63;5092165;28;20045;-76
2023/06/09 10:23:20;;;;;;;10.60;6.38;;;;;;;31.17;33.65;101542.13;5090376;28;20052;-75
2023/06/09 10:25:48;;;;;;;6.93;6.22;;;;;;;31.32;33.85;101547.44;5094980;28;20098;-75
2023/06/09 10:28:18;;;;;;;12.13;6.18;;;;;;;31.39;33.02;101546.63;5095425;28;20079;-77
2023/06/09 10:30:47;;;;;;;8.20;5.93;;;;;;;31.45;33.27;101536.13;5096836;28;20049;-76
2023/06/09 10:33:49;;;;;;;10.77;6.45;;;;;;;31.60;32.75;101535.19;5097424;28;20040;-77
2023/06/09 10:36:16;;;;;;;9.52;5.78;;;;;;;31.67;32.20;101545.41;5061357;28;20063;-75
2023/06/09 10:38:47;;;;;;;8.43;5.82;;;;;;;31.65;32.86;101547.97;5093605;28;20055;-78
2023/06/09 10:41:40;;;;;;;6.43;5.85;;;;;;;31.84;32.80;101541.88;5094903;28;20073;-74
2023/06/09 10:44:31;;;;;;;6.30;5.80;;;;;;;31.88;31.78;101538.72;5095714;28;20452;-76
2023/06/09 10:46:58;;;;;;;7.22;5.80;;;;;;;31.78;31.79;101528.38;5095875;28;20445;-75
2023/06/09 10:49:25;;;;;;;9.43;5.90;;;;;;;31.86;31.97;101527.56;5094673;28;20048;-73
2023/06/09 10:51:55;;;;;;;6.93;6.22;;;;;;;31.90;31.22;101525.09;5094791;28;20091;-78
2023/06/09 10:54:24;;;;;;;9.38;6.05;;;;;;;32.01;31.89;101528.03;5094742;28;20110;-76
2023/06/09 10:56:53;;;;;;;9.05;5.90;;;;;;;32.09;31.68;101525.91;5095519;28;20618;-77
2023/06/09 10:59:26;;;;;;;6.75;5.60;;;;;;;32.25;32.67;101526.44;5094906;28;20045;-75
2023/06/09 11:02:01;;;;;;;6.45;5.82;;;;;;;32.37;30.64;101516.34;5095377;28;20080;-75
2023/06/09 11:04:48;;;;;;;6.53;5.93;;;;;;;32.54;30.82;101523.75;5095042;28;20045;-77
2023/06/09 11:07:24;;;;;;;6.80;5.60;;;;;;;32.53;30.81;101511.28;5095631;28;20043;-76
2023/06/09 11:09:50;;;;;;;6.22;5.78;;;;;;;32.49;30.23;101514.47;5095115;28;20040;-77
2023/06/09 11:12:50;;;;;;;6.07;5.53;;;;;;;32.69;30.42;101501.47;5094933;28;20115;-78
2023/06/09 11:15:17;;;;;;;12.00;5.72;;;;;;;32.56;30.19;101499.13;5095113;28;20063;-77
2023/06/09 11:17:53;;;;;;;5.97;5.45;;;;;;;32.56;29.63;101503.91;5093781;28;20052;-76
2023/06/09 11:20:25;;;;;;;7.07;5.32;;;;;;;32.56;29.05;101493.59;5095073;28;20045;-76
2023/06/09 11:22:51;;;;;;;7.15;5.53;;;;;;;32.53;29.35;101496.78;5093678;28;20098;-76
2023/06/09 11:25:18;;;;;;;6.28;5.68;;;;;;;32.45;29.16;101496.91;5094928;28;20071;-76
2023/06/09 11:27:47;;;;;;;7.50;6.32;;;;;;;32.59;28.80;101491.72;5094962;28;20055;-75
2023/06/09 11:30:18;;;;;;;6.10;5.53;;;;;;;32.67;28.16;101476.50;5094680;28;20044;-76
2023/06/09 11:32:51;;;;;;;;;;;;;;;32.92;29.29;101472.75;5095650;28;20528;-76
2023/06/09 11:35:27;;;;;;;7.13;5.07;;;;;;;32.74;28.20;101469.41;5094448;28;19928;-76
2023/06/09 11:38:00;;;;;;;8.48;5.32;;;;;;;32.77;28.60;101471.75;5094499;28;20515;-75
2023/06/09 11:40:29;;;;;;;9.40;5.07;;;;;;;32.79;28.01;101471.88;5094823;28;20068;-75
2023/06/09 11:42:57;;;;;;;11.25;5.10;;;;;;;32.85;27.45;101468.84;5095552;28;20044;-74
2023/06/09 11:45:26;;;;;;;5.57;4.80;;;;;;;32.74;27.99;101470.13;5094251;28;20051;-75
2023/06/09 11:47:59;;;;;;;6.40;4.60;;;;;;;32.76;27.81;101469.59;5094734;28;20524;-75
2023/06/09 11:50:36;;;;;;;7.07;5.05;;;;;;;32.88;28.24;101464.91;5093137;28;20056;-76